sensor_id;sensor_type;location;lat;lon;timestamp;temperature;humidity
3360;DHT22;1693;49.602;11.046;2023-04-06T00:00:47;-0.60;99.90
3360;DHT22;1693;49.602;11.046;2023-04-06T00:03:14;-0.60;99.90
3360;DHT22;1693;49.602;11.046;2023-04-06T00:05:41;-0.70;99.90
3360;DHT22;1693;49.602;11.046;2023-04-06T00:08:08;-0.70;99.90
3360;DHT22;1693;49.602;11.046;2023-04-06T00:10:36;-0.80;99.90
3360;DHT22;1693;49.602;11.046;2023-04-06T00:13:03;-0.80;99.90
3360;DHT22;1693;49.602;11.046;2023-04-06T00:15:32;-0.80;99.90
3360;DHT22;1693;49.602;11.046;2023-04-06T00:17:59;-0.80;99.90
3360;DHT22;1693;49.602;11.046;2023-04-06T00:20:26;-0.80;99.90
3360;DHT22;1693;49.602;11.046;2023-04-06T00:22:53;-0.80;99.90
3360;DHT22;1693;49.602;11.046;2023-04-06T00:25:21;-0.90;99.90
3360;DHT22;1693;49.602;11.046;2023-04-06T00:27:48;-0.90;99.90
3360;DHT22;1693;49.602;11.046;2023-04-06T00:30:15;-1.00;99.90
3360;DHT22;1693;49.602;11.046;2023-04-06T00:32:44;-1.10;99.90
3360;DHT22;1693;49.602;11.046;2023-04-06T00:35:11;-1.20;99.90
3360;DHT22;1693;49.602;11.046;2023-04-06T00:37:38;-1.20;99.90
3360;DHT22;1693;49.602;11.046;2023-04-06T00:40:06;-1.20;99.90
3360;DHT22;1693;49.602;11.046;2023-04-06T00:42:33;-1.30;99.90
3360;DHT22;1693;49.602;11.046;2023-04-06T00:45:01;-1.30;99.90
3360;DHT22;1693;49.602;11.046;2023-04-06T00:47:28;-1.20;99.90
3360;DHT22;1693;49.602;11.046;2023-04-06T00:49:57;-1.20;99.90
3360;DHT22;1693;49.602;11.046;2023-04-06T00:52:24;-1.20;99.90
3360;DHT22;1693;49.602;11.046;2023-04-06T00:54:51;-1.30;99.90
3360;DHT22;1693;49.602;11.046;2023-04-06T00:57:18;-1.30;99.90
3360;DHT22;1693;49.602;11.046;2023-04-06T00:59:46;-1.40;99.90
3360;DHT22;1693;49.602;11.046;2023-04-06T01:02:13;-1.40;99.90
3360;DHT22;1693;49.602;11.046;2023-04-06T01:04:40;-1.40;99.90
3360;DHT22;1693;49.602;11.046;2023-04-06T01:07:09;-1.40;99.90
3360;DHT22;1693;49.602;11.046;2023-04-06T01:09:36;-1.50;99.90
3360;DHT22;1693;49.602;11.046;2023-04-06T01:12:06;-1.50;99.90
3360;DHT22;1693;49.602;11.046;2023-04-06T01:14:33;-1.50;99.90
3360;DHT22;1693;49.602;11.046;2023-04-06T01:17:01;-1.50;99.90
3360;DHT22;1693;49.602;11.046;2023-04-06T01:19:28;-1.50;99.90
3360;DHT22;1693;49.602;11.046;2023-04-06T01:21:55;-1.50;99.90
3360;DHT22;1693;49.602;11.046;2023-04-06T01:24:24;-1.60;99.90
3360;DHT22;1693;49.602;11.046;2023-04-06T01:26:51;-1.60;99.90
3360;DHT22;1693;49.602;11.046;2023-04-06T01:29:18;-1.50;99.90
3360;DHT22;1693;49.602;11.046;2023-04-06T01:31:45;-1.60;99.90
3360;DHT22;1693;49.602;11.046;2023-04-06T01:34:12;-1.60;99.90
3360;DHT22;1693;49.602;11.046;2023-04-06T01:36:39;-1.60;99.90
3360;DHT22;1693;49.602;11.046;2023-04-06T01:39:07;-1.70;99.90
3360;DHT22;1693;49.602;11.046;2023-04-06T01:41:35;-1.70;99.90
3360;DHT22;1693;49.602;11.046;2023-04-06T01:44:02;-1.70;99.90
3360;DHT22;1693;49.602;11.046;2023-04-06T01:46:30;-1.70;99.90
3360;DHT22;1693;49.602;11.046;2023-04-06T01:48:57;-1.70;99.90
3360;DHT22;1693;49.602;11.046;2023-04-06T01:51:24;-1.70;99.90
3360;DHT22;1693;49.602;11.046;2023-04-06T01:53:52;-1.80;99.90
3360;DHT22;1693;49.602;11.046;2023-04-06T01:56:19;-1.80;99.90
3360;DHT22;1693;49.602;11.046;2023-04-06T01:58:48;-1.80;99.90
3360;DHT22;1693;49.602;11.046;2023-04-06T02:01:19;-1.80;99.90
3360;DHT22;1693;49.602;11.046;2023-04-06T02:03:46;-1.80;99.90
3360;DHT22;1693;49.602;11.046;2023-04-06T02:06:14;-1.80;99.90
3360;DHT22;1693;49.602;11.046;2023-04-06T02:08:43;-1.80;99.90
3360;DHT22;1693;49.602;11.046;2023-04-06T02:11:10;-1.80;99.90
3360;DHT22;1693;49.602;11.046;2023-04-06T02:13:37;-1.80;99.90
3360;DHT22;1693;49.602;11.046;2023-04-06T02:16:06;-1.90;99.90
3360;DHT22;1693;49.602;11.046;2023-04-06T02:18:34;-1.80;99.90
3360;DHT22;1693;49.602;11.046;2023-04-06T02:21:01;-1.90;99.90
3360;DHT22;1693;49.602;11.046;2023-04-06T02:23:29;-1.90;99.90
3360;DHT22;1693;49.602;11.046;2023-04-06T02:25:56;-1.90;99.90
3360;DHT22;1693;49.602;11.046;2023-04-06T02:28:23;-1.90;99.90
3360;DHT22;1693;49.602;11.046;2023-04-06T02:30:51;-1.90;99.90
3360;DHT22;1693;49.602;11.046;2023-04-06T02:33:20;-1.90;99.90
3360;DHT22;1693;49.602;11.046;2023-04-06T02:35:47;-1.90;99.90
3360;DHT22;1693;49.602;11.046;2023-04-06T02:38:14;-1.90;99.90
3360;DHT22;1693;49.602;11.046;2023-04-06T02:40:41;-1.90;99.90
3360;DHT22;1693;49.602;11.046;2023-04-06T02:43:08;-1.90;99.90
3360;DHT22;1693;49.602;11.046;2023-04-06T02:45:35;-2.00;99.90
3360;DHT22;1693;49.602;11.046;2023-04-06T02:48:03;-2.00;99.90
3360;DHT22;1693;49.602;11.046;2023-04-06T02:50:32;-1.90;99.90
3360;DHT22;1693;49.602;11.046;2023-04-06T02:52:59;-1.90;99.90
3360;DHT22;1693;49.602;11.046;2023-04-06T02:55:26;-2.00;99.90
3360;DHT22;1693;49.602;11.046;2023-04-06T02:57:53;-1.90;99.90
3360;DHT22;1693;49.602;11.046;2023-04-06T03:00:23;-2.00;99.90
3360;DHT22;1693;49.602;11.046;2023-04-06T03:02:50;-2.10;99.90
3360;DHT22;1693;49.602;11.046;2023-04-06T03:05:17;-2.10;99.90
3360;DHT22;1693;49.602;11.046;2023-04-06T03:07:46;-2.10;99.90
3360;DHT22;1693;49.602;11.046;2023-04-06T03:10:13;-2.20;99.90
3360;DHT22;1693;49.602;11.046;2023-04-06T03:12:41;-2.20;99.90
3360;DHT22;1693;49.602;11.046;2023-04-06T03:15:09;-2.20;99.90
3360;DHT22;1693;49.602;11.046;2023-04-06T03:17:37;-2.20;99.90
3360;DHT22;1693;49.602;11.046;2023-04-06T03:20:04;-2.30;99.90
3360;DHT22;1693;49.602;11.046;2023-04-06T03:22:31;-2.30;99.90
3360;DHT22;1693;49.602;11.046;2023-04-06T03:25:00;-2.30;99.90
3360;DHT22;1693;49.602;11.046;2023-04-06T03:27:27;-2.30;99.90
3360;DHT22;1693;49.602;11.046;2023-04-06T03:29:54;-2.40;99.90
3360;DHT22;1693;49.602;11.046;2023-04-06T03:32:21;-2.40;99.90
3360;DHT22;1693;49.602;11.046;2023-04-06T03:34:48;-2.40;99.90
3360;DHT22;1693;49.602;11.046;2023-04-06T03:37:16;-2.40;99.90
3360;DHT22;1693;49.602;11.046;2023-04-06T03:39:43;-2.40;99.90
3360;DHT22;1693;49.602;11.046;2023-04-06T03:42:12;-2.30;99.90
3360;DHT22;1693;49.602;11.046;2023-04-06T03:44:39;-2.30;99.90
3360;DHT22;1693;49.602;11.046;2023-04-06T03:47:07;-2.40;99.90
3360;DHT22;1693;49.602;11.046;2023-04-06T03:49:33;-2.50;99.90
3360;DHT22;1693;49.602;11.046;2023-04-06T03:52:01;-2.50;99.90
3360;DHT22;1693;49.602;11.046;2023-04-06T03:54:28;-2.50;99.90
3360;DHT22;1693;49.602;11.046;2023-04-06T03:56:55;-2.50;99.90
3360;DHT22;1693;49.602;11.046;2023-04-06T03:59:24;-2.50;99.90
3360;DHT22;1693;49.602;11.046;2023-04-06T04:01:51;-2.50;99.90
3360;DHT22;1693;49.602;11.046;2023-04-06T04:04:18;-2.50;99.90
3360;DHT22;1693;49.602;11.046;2023-04-06T04:06:46;-2.50;99.90
3360;DHT22;1693;49.602;11.046;2023-04-06T04:09:13;-2.50;99.90
3360;DHT22;1693;49.602;11.046;2023-04-06T04:11:40;-2.60;99.90
3360;DHT22;1693;49.602;11.046;2023-04-06T04:14:07;-2.60;99.90
3360;DHT22;1693;49.602;11.046;2023-04-06T04:16:36;-2.60;99.90
3360;DHT22;1693;49.602;11.046;2023-04-06T04:19:04;-2.60;99.90
3360;DHT22;1693;49.602;11.046;2023-04-06T04:21:32;-2.60;99.90
3360;DHT22;1693;49.602;11.046;2023-04-06T04:23:59;-2.50;99.90
3360;DHT22;1693;49.602;11.046;2023-04-06T04:26:26;-2.50;99.90
3360;DHT22;1693;49.602;11.046;2023-04-06T04:28:53;-2.50;99.90
3360;DHT22;1693;49.602;11.046;2023-04-06T04:31:20;-2.50;99.90
3360;DHT22;1693;49.602;11.046;2023-04-06T04:33:49;-2.40;99.90
3360;DHT22;1693;49.602;11.046;2023-04-06T04:36:16;-2.40;99.90
3360;DHT22;1693;49.602;11.046;2023-04-06T04:38:43;-2.30;99.90
3360;DHT22;1693;49.602;11.046;2023-04-06T04:41:11;-2.30;99.90
3360;DHT22;1693;49.602;11.046;2023-04-06T04:43:38;-2.20;99.90
3360;DHT22;1693;49.602;11.046;2023-04-06T04:46:05;-2.30;99.90
3360;DHT22;1693;49.602;11.046;2023-04-06T04:48:32;-2.20;99.90
3360;DHT22;1693;49.602;11.046;2023-04-06T04:51:01;-2.20;99.90
3360;DHT22;1693;49.602;11.046;2023-04-06T04:53:31;-2.20;99.90
3360;DHT22;1693;49.602;11.046;2023-04-06T04:56:04;-2.20;99.90
3360;DHT22;1693;49.602;11.046;2023-04-06T04:58:31;-2.10;99.90
3360;DHT22;1693;49.602;11.046;2023-04-06T05:00:58;-2.10;99.90
3360;DHT22;1693;49.602;11.046;2023-04-06T05:03:26;-2.10;99.90
3360;DHT22;1693;49.602;11.046;2023-04-06T05:05:53;-2.00;99.90
3360;DHT22;1693;49.602;11.046;2023-04-06T05:08:22;-2.00;99.90
3360;DHT22;1693;49.602;11.046;2023-04-06T05:10:49;-1.90;99.90
3360;DHT22;1693;49.602;11.046;2023-04-06T05:13:16;-1.90;99.90
3360;DHT22;1693;49.602;11.046;2023-04-06T05:15:43;-1.90;99.90
3360;DHT22;1693;49.602;11.046;2023-04-06T05:18:13;-1.80;99.90
3360;DHT22;1693;49.602;11.046;2023-04-06T05:20:40;-1.80;99.90
3360;DHT22;1693;49.602;11.046;2023-04-06T05:23:07;-1.70;99.90
3360;DHT22;1693;49.602;11.046;2023-04-06T05:25:36;-1.60;99.90
3360;DHT22;1693;49.602;11.046;2023-04-06T05:28:04;-1.60;99.90
3360;DHT22;1693;49.602;11.046;2023-04-06T05:30:31;-1.60;99.90
3360;DHT22;1693;49.602;11.046;2023-04-06T05:32:58;-1.40;99.90
3360;DHT22;1693;49.602;11.046;2023-04-06T05:35:26;-1.40;99.90
3360;DHT22;1693;49.602;11.046;2023-04-06T05:37:53;-1.30;99.90
3360;DHT22;1693;49.602;11.046;2023-04-06T05:40:20;-1.30;99.90
3360;DHT22;1693;49.602;11.046;2023-04-06T05:42:48;-1.10;99.90
3360;DHT22;1693;49.602;11.046;2023-04-06T05:45:17;-1.00;99.90
3360;DHT22;1693;49.602;11.046;2023-04-06T05:47:45;-1.00;99.90
3360;DHT22;1693;49.602;11.046;2023-04-06T05:50:14;-0.90;99.90
3360;DHT22;1693;49.602;11.046;2023-04-06T05:52:41;-0.90;99.90
3360;DHT22;1693;49.602;11.046;2023-04-06T05:55:11;-0.80;99.90
3360;DHT22;1693;49.602;11.046;2023-04-06T05:57:38;-0.70;99.90
3360;DHT22;1693;49.602;11.046;2023-04-06T06:00:08;-0.80;99.90
3360;DHT22;1693;49.602;11.046;2023-04-06T06:02:36;-0.70;99.90
3360;DHT22;1693;49.602;11.046;2023-04-06T06:05:04;-0.40;99.90
3360;DHT22;1693;49.602;11.046;2023-04-06T06:07:31;-0.10;99.90
3360;DHT22;1693;49.602;11.046;2023-04-06T06:09:59;0.10;99.90
3360;DHT22;1693;49.602;11.046;2023-04-06T06:12:26;0.30;99.90
3360;DHT22;1693;49.602;11.046;2023-04-06T06:14:54;0.40;99.90
3360;DHT22;1693;49.602;11.046;2023-04-06T06:17:22;0.50;99.90
3360;DHT22;1693;49.602;11.046;2023-04-06T06:19:49;0.60;99.90
3360;DHT22;1693;49.602;11.046;2023-04-06T06:22:16;0.60;99.90
3360;DHT22;1693;49.602;11.046;2023-04-06T06:24:43;1.00;99.90
3360;DHT22;1693;49.602;11.046;2023-04-06T06:27:10;1.20;99.90
3360;DHT22;1693;49.602;11.046;2023-04-06T06:29:37;1.40;99.90
3360;DHT22;1693;49.602;11.046;2023-04-06T06:32:05;1.70;99.90
3360;DHT22;1693;49.602;11.046;2023-04-06T06:34:36;1.90;99.90
3360;DHT22;1693;49.602;11.046;2023-04-06T06:37:03;2.10;99.90
3360;DHT22;1693;49.602;11.046;2023-04-06T06:39:30;2.20;99.90
3360;DHT22;1693;49.602;11.046;2023-04-06T06:41:57;2.10;99.90
3360;DHT22;1693;49.602;11.046;2023-04-06T06:44:26;2.10;99.90
3360;DHT22;1693;49.602;11.046;2023-04-06T06:46:53;2.40;99.90
3360;DHT22;1693;49.602;11.046;2023-04-06T06:49:21;2.70;99.90
3360;DHT22;1693;49.602;11.046;2023-04-06T06:51:49;2.90;99.90
3360;DHT22;1693;49.602;11.046;2023-04-06T06:54:16;3.20;99.90
3360;DHT22;1693;49.602;11.046;2023-04-06T06:56:43;3.30;99.90
3360;DHT22;1693;49.602;11.046;2023-04-06T06:59:10;3.20;99.90
3360;DHT22;1693;49.602;11.046;2023-04-06T07:01:37;3.50;99.90
3360;DHT22;1693;49.602;11.046;2023-04-06T07:04:04;3.80;99.90
3360;DHT22;1693;49.602;11.046;2023-04-06T07:06:33;4.10;99.90
3360;DHT22;1693;49.602;11.046;2023-04-06T07:09:02;4.20;99.90
3360;DHT22;1693;49.602;11.046;2023-04-06T07:11:29;4.40;99.90
3360;DHT22;1693;49.602;11.046;2023-04-06T07:13:57;4.60;99.90
3360;DHT22;1693;49.602;11.046;2023-04-06T07:16:24;4.80;99.90
3360;DHT22;1693;49.602;11.046;2023-04-06T07:18:51;4.90;99.90
3360;DHT22;1693;49.602;11.046;2023-04-06T07:21:19;5.00;99.90
3360;DHT22;1693;49.602;11.046;2023-04-06T07:23:46;4.90;99.90
3360;DHT22;1693;49.602;11.046;2023-04-06T07:26:15;5.00;99.90
3360;DHT22;1693;49.602;11.046;2023-04-06T07:28:43;5.20;99.90
3360;DHT22;1693;49.602;11.046;2023-04-06T07:31:12;5.40;99.90
3360;DHT22;1693;49.602;11.046;2023-04-06T07:33:39;5.30;99.90
3360;DHT22;1693;49.602;11.046;2023-04-06T07:36:06;5.40;99.90
3360;DHT22;1693;49.602;11.046;2023-04-06T07:38:33;5.20;99.90
3360;DHT22;1693;49.602;11.046;2023-04-06T07:41:00;5.40;99.90
3360;DHT22;1693;49.602;11.046;2023-04-06T07:43:30;5.20;99.90
3360;DHT22;1693;49.602;11.046;2023-04-06T07:45:57;5.30;99.90
3360;DHT22;1693;49.602;11.046;2023-04-06T07:48:25;5.60;99.90
3360;DHT22;1693;49.602;11.046;2023-04-06T07:51:00;5.80;99.90
3360;DHT22;1693;49.602;11.046;2023-04-06T07:53:27;6.10;99.90
3360;DHT22;1693;49.602;11.046;2023-04-06T07:55:54;6.10;99.00
3360;DHT22;1693;49.602;11.046;2023-04-06T07:58:22;6.20;99.20
3360;DHT22;1693;49.602;11.046;2023-04-06T08:00:50;6.20;99.30
3360;DHT22;1693;49.602;11.046;2023-04-06T08:03:17;6.20;98.70
3360;DHT22;1693;49.602;11.046;2023-04-06T08:05:46;6.50;98.40
3360;DHT22;1693;49.602;11.046;2023-04-06T08:08:14;6.40;96.20
3360;DHT22;1693;49.602;11.046;2023-04-06T08:10:41;6.70;97.00
3360;DHT22;1693;49.602;11.046;2023-04-06T08:13:08;7.00;96.20
3360;DHT22;1693;49.602;11.046;2023-04-06T08:15:36;7.00;95.30
3360;DHT22;1693;49.602;11.046;2023-04-06T08:18:12;7.20;94.80
3360;DHT22;1693;49.602;11.046;2023-04-06T08:20:39;7.30;93.90
3360;DHT22;1693;49.602;11.046;2023-04-06T08:23:06;7.40;92.10
3360;DHT22;1693;49.602;11.046;2023-04-06T08:25:35;7.50;91.30
3360;DHT22;1693;49.602;11.046;2023-04-06T08:28:02;7.50;90.90
3360;DHT22;1693;49.602;11.046;2023-04-06T08:30:29;7.40;90.10
3360;DHT22;1693;49.602;11.046;2023-04-06T08:32:57;7.50;90.40
3360;DHT22;1693;49.602;11.046;2023-04-06T08:35:26;7.70;89.70
3360;DHT22;1693;49.602;11.046;2023-04-06T08:37:53;7.90;88.90
3360;DHT22;1693;49.602;11.046;2023-04-06T08:40:20;8.00;89.80
3360;DHT22;1693;49.602;11.046;2023-04-06T08:42:50;8.10;89.20
3360;DHT22;1693;49.602;11.046;2023-04-06T08:45:18;8.30;87.50
3360;DHT22;1693;49.602;11.046;2023-04-06T08:47:47;8.40;84.50
3360;DHT22;1693;49.602;11.046;2023-04-06T08:50:16;8.40;83.60
3360;DHT22;1693;49.602;11.046;2023-04-06T08:52:47;8.50;82.90
3360;DHT22;1693;49.602;11.046;2023-04-06T08:55:14;8.50;82.10
3360;DHT22;1693;49.602;11.046;2023-04-06T08:57:42;8.40;82.70
3360;DHT22;1693;49.602;11.046;2023-04-06T09:00:10;8.50;82.20
3360;DHT22;1693;49.602;11.046;2023-04-06T09:02:39;8.30;81.30
3360;DHT22;1693;49.602;11.046;2023-04-06T09:05:08;8.30;82.10
3360;DHT22;1693;49.602;11.046;2023-04-06T09:07:36;8.20;80.80
3360;DHT22;1693;49.602;11.046;2023-04-06T09:10:06;8.20;83.10
3360;DHT22;1693;49.602;11.046;2023-04-06T09:12:35;8.40;82.50
3360;DHT22;1693;49.602;11.046;2023-04-06T09:15:02;8.40;80.00
3360;DHT22;1693;49.602;11.046;2023-04-06T09:17:31;8.60;78.70
3360;DHT22;1693;49.602;11.046;2023-04-06T09:20:01;8.60;77.60
3360;DHT22;1693;49.602;11.046;2023-04-06T09:22:36;8.70;77.00
3360;DHT22;1693;49.602;11.046;2023-04-06T09:25:05;8.70;75.30
3360;DHT22;1693;49.602;11.046;2023-04-06T09:27:34;8.80;77.10
3360;DHT22;1693;49.602;11.046;2023-04-06T09:30:06;8.90;76.00
3360;DHT22;1693;49.602;11.046;2023-04-06T09:32:44;8.90;72.20
3360;DHT22;1693;49.602;11.046;2023-04-06T09:35:13;8.90;71.20
3360;DHT22;1693;49.602;11.046;2023-04-06T09:37:40;9.00;72.20
3360;DHT22;1693;49.602;11.046;2023-04-06T09:40:11;9.10;73.70
3360;DHT22;1693;49.602;11.046;2023-04-06T09:42:41;9.20;71.40
3360;DHT22;1693;49.602;11.046;2023-04-06T09:45:09;9.00;72.00
3360;DHT22;1693;49.602;11.046;2023-04-06T09:47:37;9.20;69.70
3360;DHT22;1693;49.602;11.046;2023-04-06T09:50:07;9.40;70.10
3360;DHT22;1693;49.602;11.046;2023-04-06T09:52:40;9.50;68.90
3360;DHT22;1693;49.602;11.046;2023-04-06T09:55:09;9.50;66.90
3360;DHT22;1693;49.602;11.046;2023-04-06T09:57:41;9.50;66.50
3360;DHT22;1693;49.602;11.046;2023-04-06T10:00:15;9.40;66.40
3360;DHT22;1693;49.602;11.046;2023-04-06T10:02:49;9.40;65.90
3360;DHT22;1693;49.602;11.046;2023-04-06T10:05:22;9.30;67.70
3360;DHT22;1693;49.602;11.046;2023-04-06T10:07:55;9.30;69.60
3360;DHT22;1693;49.602;11.046;2023-04-06T10:10:25;9.70;67.50
3360;DHT22;1693;49.602;11.046;2023-04-06T10:12:53;9.80;66.80
3360;DHT22;1693;49.602;11.046;2023-04-06T10:17:48;10.10;64.70
3360;DHT22;1693;49.602;11.046;2023-04-06T10:20:23;10.30;62.80
3360;DHT22;1693;49.602;11.046;2023-04-06T10:23:01;9.90;67.50
3360;DHT22;1693;49.602;11.046;2023-04-06T10:25:34;10.30;66.60
3360;DHT22;1693;49.602;11.046;2023-04-06T10:28:05;10.60;63.70
3360;DHT22;1693;49.602;11.046;2023-04-06T10:30:33;10.60;62.30
3360;DHT22;1693;49.602;11.046;2023-04-06T10:33:01;10.70;62.00
3360;DHT22;1693;49.602;11.046;2023-04-06T10:35:39;10.40;65.10
3360;DHT22;1693;49.602;11.046;2023-04-06T10:38:06;10.50;62.30
3360;DHT22;1693;49.602;11.046;2023-04-06T10:40:37;10.50;63.90
3360;DHT22;1693;49.602;11.046;2023-04-06T10:43:08;11.30;66.30
3360;DHT22;1693;49.602;11.046;2023-04-06T10:45:36;11.70;64.90
3360;DHT22;1693;49.602;11.046;2023-04-06T10:48:13;12.30;63.40
3360;DHT22;1693;49.602;11.046;2023-04-06T10:50:41;12.50;58.90
3360;DHT22;1693;49.602;11.046;2023-04-06T10:53:09;12.70;60.60
3360;DHT22;1693;49.602;11.046;2023-04-06T11:03:02;15.20;51.50
3360;DHT22;1693;49.602;11.046;2023-04-06T11:05:29;15.30;50.90
3360;DHT22;1693;49.602;11.046;2023-04-06T11:07:57;16.30;51.30
3360;DHT22;1693;49.602;11.046;2023-04-06T11:10:24;15.60;49.10
3360;DHT22;1693;49.602;11.046;2023-04-06T11:12:55;14.90;50.80
3360;DHT22;1693;49.602;11.046;2023-04-06T11:15:34;15.20;50.90
3360;DHT22;1693;49.602;11.046;2023-04-06T11:20:31;16.70;48.20
3360;DHT22;1693;49.602;11.046;2023-04-06T11:23:02;16.60;48.90
3360;DHT22;1693;49.602;11.046;2023-04-06T11:25:31;16.80;46.20
3360;DHT22;1693;49.602;11.046;2023-04-06T11:28:00;16.20;46.20
3360;DHT22;1693;49.602;11.046;2023-04-06T11:30:27;16.20;45.10
3360;DHT22;1693;49.602;11.046;2023-04-06T11:33:00;15.60;47.00
3360;DHT22;1693;49.602;11.046;2023-04-06T11:35:31;15.80;45.30
3360;DHT22;1693;49.602;11.046;2023-04-06T11:38:03;18.50;48.10
3360;DHT22;1693;49.602;11.046;2023-04-06T11:40:30;16.20;46.80
3360;DHT22;1693;49.602;11.046;2023-04-06T11:43:00;16.70;47.80
3360;DHT22;1693;49.602;11.046;2023-04-06T11:45:27;18.00;46.50
3360;DHT22;1693;49.602;11.046;2023-04-06T11:47:59;18.10;44.10
3360;DHT22;1693;49.602;11.046;2023-04-06T11:50:32;16.90;45.70
3360;DHT22;1693;49.602;11.046;2023-04-06T11:53:01;16.90;46.30
3360;DHT22;1693;49.602;11.046;2023-04-06T11:55:28;16.40;43.70
3360;DHT22;1693;49.602;11.046;2023-04-06T11:57:56;16.10;46.00
3360;DHT22;1693;49.602;11.046;2023-04-06T12:00:24;16.50;44.30
3360;DHT22;1693;49.602;11.046;2023-04-06T12:02:51;17.80;41.00
3360;DHT22;1693;49.602;11.046;2023-04-06T12:05:18;16.80;42.40
3360;DHT22;1693;49.602;11.046;2023-04-06T12:07:46;15.90;44.70
3360;DHT22;1693;49.602;11.046;2023-04-06T12:12:40;17.90;43.40
3360;DHT22;1693;49.602;11.046;2023-04-06T12:17:36;18.20;42.10
3360;DHT22;1693;49.602;11.046;2023-04-06T12:20:06;18.10;44.00
3360;DHT22;1693;49.602;11.046;2023-04-06T12:25:02;18.80;42.40
3360;DHT22;1693;49.602;11.046;2023-04-06T12:27:30;19.60;41.00
3360;DHT22;1693;49.602;11.046;2023-04-06T12:29:57;18.80;41.40
3360;DHT22;1693;49.602;11.046;2023-04-06T12:32:24;19.20;40.00
3360;DHT22;1693;49.602;11.046;2023-04-06T12:34:52;18.50;40.50
3360;DHT22;1693;49.602;11.046;2023-04-06T12:37:20;19.30;40.80
3360;DHT22;1693;49.602;11.046;2023-04-06T12:39:47;19.50;39.50
3360;DHT22;1693;49.602;11.046;2023-04-06T12:42:14;19.20;39.80
3360;DHT22;1693;49.602;11.046;2023-04-06T12:44:41;19.80;40.70
3360;DHT22;1693;49.602;11.046;2023-04-06T12:47:08;19.00;40.30
3360;DHT22;1693;49.602;11.046;2023-04-06T12:49:37;17.10;40.90
3360;DHT22;1693;49.602;11.046;2023-04-06T12:52:05;17.00;43.00
3360;DHT22;1693;49.602;11.046;2023-04-06T12:54:32;16.10;42.40
3360;DHT22;1693;49.602;11.046;2023-04-06T12:56:59;17.80;42.10
3360;DHT22;1693;49.602;11.046;2023-04-06T12:59:27;18.50;40.00
3360;DHT22;1693;49.602;11.046;2023-04-06T13:02:00;17.80;40.20
3360;DHT22;1693;49.602;11.046;2023-04-06T13:04:28;19.10;41.40
3360;DHT22;1693;49.602;11.046;2023-04-06T13:06:55;20.70;39.50
3360;DHT22;1693;49.602;11.046;2023-04-06T13:09:25;20.70;37.60
3360;DHT22;1693;49.602;11.046;2023-04-06T13:11:52;21.00;37.90
3360;DHT22;1693;49.602;11.046;2023-04-06T13:14:22;21.20;38.00
3360;DHT22;1693;49.602;11.046;2023-04-06T13:16:50;21.00;37.80
3360;DHT22;1693;49.602;11.046;2023-04-06T13:19:17;21.10;37.10
3360;DHT22;1693;49.602;11.046;2023-04-06T13:24:12;19.10;36.60
3360;DHT22;1693;49.602;11.046;2023-04-06T13:26:41;21.10;38.30
3360;DHT22;1693;49.602;11.046;2023-04-06T13:29:08;22.20;36.90
3360;DHT22;1693;49.602;11.046;2023-04-06T13:31:35;22.20;36.10
3360;DHT22;1693;49.602;11.046;2023-04-06T13:34:02;22.60;35.90
3360;DHT22;1693;49.602;11.046;2023-04-06T13:36:30;21.10;34.70
3360;DHT22;1693;49.602;11.046;2023-04-06T13:38:57;21.70;35.70
3360;DHT22;1693;49.602;11.046;2023-04-06T13:41:25;21.20;34.10
3360;DHT22;1693;49.602;11.046;2023-04-06T13:43:54;22.00;35.50
3360;DHT22;1693;49.602;11.046;2023-04-06T13:46:23;22.20;35.80
3360;DHT22;1693;49.602;11.046;2023-04-06T13:48:50;22.40;34.80
3360;DHT22;1693;49.602;11.046;2023-04-06T13:51:17;22.90;33.70
3360;DHT22;1693;49.602;11.046;2023-04-06T13:53:46;23.30;34.60
3360;DHT22;1693;49.602;11.046;2023-04-06T13:56:14;20.30;34.10
3360;DHT22;1693;49.602;11.046;2023-04-06T13:58:42;20.20;34.60
3360;DHT22;1693;49.602;11.046;2023-04-06T14:01:14;20.00;34.70
3360;DHT22;1693;49.602;11.046;2023-04-06T14:03:41;17.80;36.10
3360;DHT22;1693;49.602;11.046;2023-04-06T14:08:40;22.40;35.30
3360;DHT22;1693;49.602;11.046;2023-04-06T14:11:11;20.70;32.20
3360;DHT22;1693;49.602;11.046;2023-04-06T14:13:38;19.80;32.30
3360;DHT22;1693;49.602;11.046;2023-04-06T14:16:06;22.20;34.80
3360;DHT22;1693;49.602;11.046;2023-04-06T14:18:36;24.30;33.80
3360;DHT22;1693;49.602;11.046;2023-04-06T14:21:04;24.70;33.60
3360;DHT22;1693;49.602;11.046;2023-04-06T14:23:31;22.90;32.80
3360;DHT22;1693;49.602;11.046;2023-04-06T14:26:03;20.00;33.20
3360;DHT22;1693;49.602;11.046;2023-04-06T14:28:32;19.40;36.30
3360;DHT22;1693;49.602;11.046;2023-04-06T14:31:00;22.20;35.00
3360;DHT22;1693;49.602;11.046;2023-04-06T14:33:29;20.40;32.80
3360;DHT22;1693;49.602;11.046;2023-04-06T14:35:58;18.70;34.00
3360;DHT22;1693;49.602;11.046;2023-04-06T14:38:25;21.60;34.50
3360;DHT22;1693;49.602;11.046;2023-04-06T14:40:53;23.60;33.10
3360;DHT22;1693;49.602;11.046;2023-04-06T14:43:21;24.80;32.10
3360;DHT22;1693;49.602;11.046;2023-04-06T14:45:48;24.90;31.70
3360;DHT22;1693;49.602;11.046;2023-04-06T14:48:15;22.90;30.30
3360;DHT22;1693;49.602;11.046;2023-04-06T14:50:52;21.40;31.40
3360;DHT22;1693;49.602;11.046;2023-04-06T14:53:22;21.00;30.90
3360;DHT22;1693;49.602;11.046;2023-04-06T14:58:17;21.00;29.50
3360;DHT22;1693;49.602;11.046;2023-04-06T15:00:44;22.90;32.50
3360;DHT22;1693;49.602;11.046;2023-04-06T15:03:11;22.00;31.40
3360;DHT22;1693;49.602;11.046;2023-04-06T15:05:38;22.80;31.30
3360;DHT22;1693;49.602;11.046;2023-04-06T15:08:05;23.60;31.00
3360;DHT22;1693;49.602;11.046;2023-04-06T15:10:36;23.40;30.70
3360;DHT22;1693;49.602;11.046;2023-04-06T15:15:31;23.10;30.70
3360;DHT22;1693;49.602;11.046;2023-04-06T15:17:58;24.40;31.50
3360;DHT22;1693;49.602;11.046;2023-04-06T15:20:27;22.80;30.60
3360;DHT22;1693;49.602;11.046;2023-04-06T15:22:54;22.60;30.70
3360;DHT22;1693;49.602;11.046;2023-04-06T15:25:21;23.30;31.40
3360;DHT22;1693;49.602;11.046;2023-04-06T15:27:53;24.40;31.10
3360;DHT22;1693;49.602;11.046;2023-04-06T15:30:23;25.40;31.00
3360;DHT22;1693;49.602;11.046;2023-04-06T15:35:20;25.30;29.50
3360;DHT22;1693;49.602;11.046;2023-04-06T15:37:47;22.70;29.60
3360;DHT22;1693;49.602;11.046;2023-04-06T15:40:15;19.90;30.00
3360;DHT22;1693;49.602;11.046;2023-04-06T15:45:11;22.30;33.00
3360;DHT22;1693;49.602;11.046;2023-04-06T15:50:07;24.50;31.80
3360;DHT22;1693;49.602;11.046;2023-04-06T15:55:03;22.10;30.90
3360;DHT22;1693;49.602;11.046;2023-04-06T16:00:03;22.20;31.70
3360;DHT22;1693;49.602;11.046;2023-04-06T16:02:35;22.20;31.00
3360;DHT22;1693;49.602;11.046;2023-04-06T16:05:03;21.00;30.70
3360;DHT22;1693;49.602;11.046;2023-04-06T16:07:30;19.10;31.60
3360;DHT22;1693;49.602;11.046;2023-04-06T16:09:57;17.60;33.40
3360;DHT22;1693;49.602;11.046;2023-04-06T16:12:25;20.40;33.90
3360;DHT22;1693;49.602;11.046;2023-04-06T16:14:52;21.80;32.70
3360;DHT22;1693;49.602;11.046;2023-04-06T16:17:19;22.00;31.90
3360;DHT22;1693;49.602;11.046;2023-04-06T16:19:48;21.30;32.00
3360;DHT22;1693;49.602;11.046;2023-04-06T16:22:15;22.50;31.90
3360;DHT22;1693;49.602;11.046;2023-04-06T16:24:43;23.40;31.20
3360;DHT22;1693;49.602;11.046;2023-04-06T16:27:10;23.70;30.10
3360;DHT22;1693;49.602;11.046;2023-04-06T16:29:38;22.30;29.10
3360;DHT22;1693;49.602;11.046;2023-04-06T16:32:05;22.50;30.00
3360;DHT22;1693;49.602;11.046;2023-04-06T16:34:35;22.90;29.70
3360;DHT22;1693;49.602;11.046;2023-04-06T16:37:03;22.10;30.20